createdAt,value
2019-01-29T00:00:46.008Z,1000.18
2019-01-29T00:01:46.014Z,1000.15
2019-01-29T00:02:46.045Z,1000.17
2019-01-29T00:03:46.037Z,1000.15
2019-01-29T00:04:46.049Z,1000.15
2019-01-29T00:05:46.058Z,1000.16
2019-01-29T00:06:46.069Z,1000.13
2019-01-29T00:07:46.076Z,1000.13
2019-01-29T00:08:46.092Z,1000.21
2019-01-29T00:09:46.099Z,1000.14
2019-01-29T00:10:46.114Z,1000.14
2019-01-29T00:11:46.122Z,1000.12
2019-01-29T00:12:46.132Z,1000.11
2019-01-29T00:13:46.165Z,1000.17
2019-01-29T00:14:46.149Z,1000.12
2019-01-29T00:15:46.163Z,1000.10
2019-01-29T00:16:46.170Z,1000.17
2019-01-29T00:17:46.183Z,1000.20
2019-01-29T00:18:46.194Z,1000.21
2019-01-29T00:19:46.238Z,1000.22
2019-01-29T00:20:46.247Z,1000.15
2019-01-29T00:21:46.307Z,1000.16
2019-01-29T00:22:46.240Z,1000.17
2019-01-29T00:23:46.318Z,1000.17
2019-01-29T00:24:46.262Z,1000.13
2019-01-29T00:25:46.294Z,1000.16
2019-01-29T00:26:46.290Z,1000.12
2019-01-29T00:27:46.287Z,1000.14
2019-01-29T00:28:46.302Z,1000.13
2019-01-29T00:29:46.315Z,1000.12
2019-01-29T00:30:46.320Z,1000.15
2019-01-29T00:31:46.329Z,1000.10
2019-01-29T00:32:46.346Z,1000.12
2019-01-29T00:33:46.353Z,1000.09
2019-01-29T00:34:46.360Z,1000.11
2019-01-29T00:35:46.374Z,1000.10
2019-01-29T00:36:46.383Z,1000.10
2019-01-29T00:37:46.392Z,1000.11
2019-01-29T00:38:46.402Z,1000.11
2019-01-29T00:39:46.428Z,1000.11
2019-01-29T00:40:46.423Z,1000.13
2019-01-29T00:41:46.438Z,1000.13
2019-01-29T00:42:46.444Z,1000.08
2019-01-29T00:43:46.516Z,1000.13
2019-01-29T00:44:46.468Z,1000.13
2019-01-29T00:45:46.478Z,1000.09
2019-01-29T00:46:46.487Z,1000.09
2019-01-29T00:47:46.497Z,1000.15
2019-01-29T00:48:46.517Z,1000.20
2019-01-29T00:49:46.523Z,1000.17
2019-01-29T00:50:46.531Z,1000.12
2019-01-29T00:51:46.542Z,1000.12
2019-01-29T00:52:46.553Z,1000.08
2019-01-29T00:53:46.573Z,1000.14
2019-01-29T00:54:46.579Z,1000.14
2019-01-29T00:55:46.584Z,1000.12
2019-01-29T00:56:46.595Z,1000.13
2019-01-29T00:57:46.608Z,1000.16
2019-01-29T00:58:46.621Z,1000.17
2019-01-29T00:59:46.625Z,1000.13
2019-01-29T01:00:46.641Z,1000.17
2019-01-29T01:01:46.654Z,1000.19
2019-01-29T01:02:46.670Z,1000.18
2019-01-29T01:03:46.666Z,1000.22
2019-01-29T01:04:46.682Z,1000.21
2019-01-29T01:05:46.689Z,1000.20
2019-01-29T01:06:46.703Z,1000.21
2019-01-29T01:07:46.710Z,1000.24
2019-01-29T01:08:46.719Z,1000.26
2019-01-29T01:09:46.731Z,1000.28
2019-01-29T01:10:46.743Z,1000.27
2019-01-29T01:11:46.749Z,1000.22
2019-01-29T01:12:46.764Z,1000.29
2019-01-29T01:13:46.774Z,1000.29
2019-01-29T01:14:46.784Z,1000.30
2019-01-29T01:15:46.792Z,1000.32
2019-01-29T01:16:46.808Z,1000.35
2019-01-29T01:17:46.861Z,1000.37
2019-01-29T01:18:46.820Z,1000.35
2019-01-29T01:19:46.833Z,1000.35
2019-01-29T01:20:46.843Z,1000.38
2019-01-29T01:21:46.857Z,1000.35
2019-01-29T01:22:51.295Z,1000.37
2019-01-29T01:23:46.874Z,1000.37
2019-01-29T01:24:46.881Z,1000.37
2019-01-29T01:25:46.896Z,1000.43
2019-01-29T01:26:46.909Z,1000.44
2019-01-29T01:27:46.919Z,1000.47
2019-01-29T01:28:46.954Z,1000.47
2019-01-29T01:29:46.937Z,1000.46
2019-01-29T01:30:46.948Z,1000.46
2019-01-29T01:31:46.960Z,1000.45
2019-01-29T01:32:46.968Z,1000.44
2019-01-29T01:33:46.982Z,1000.54
2019-01-29T01:34:46.992Z,1000.50
2019-01-29T01:35:47.001Z,1000.52
2019-01-29T01:36:47.011Z,1000.58
2019-01-29T01:37:47.022Z,1000.59
2019-01-29T01:38:47.033Z,1000.55
2019-01-29T01:39:47.043Z,1000.60
2019-01-29T01:40:47.054Z,1000.64
2019-01-29T01:41:47.067Z,1000.59
2019-01-29T01:42:47.074Z,1000.57
2019-01-29T01:43:47.081Z,1000.58
2019-01-29T01:44:47.096Z,1000.60
2019-01-29T01:45:47.115Z,1000.63
2019-01-29T01:46:47.116Z,1000.62
2019-01-29T01:47:47.129Z,1000.64
2019-01-29T01:48:47.138Z,1000.63
2019-01-29T01:49:47.147Z,1000.60
2019-01-29T01:50:47.161Z,1000.57
2019-01-29T01:51:47.177Z,1000.59
2019-01-29T01:52:47.179Z,1000.59
2019-01-29T01:53:47.193Z,1000.56
2019-01-29T01:54:47.208Z,1000.58
2019-01-29T01:55:47.217Z,1000.55
2019-01-29T01:56:47.222Z,1000.58
2019-01-29T01:57:47.232Z,1000.55
2019-01-29T01:58:47.252Z,1000.64
2019-01-29T01:59:47.253Z,1000.63
2019-01-29T02:00:47.266Z,1000.60
2019-01-29T02:01:47.275Z,1000.57
2019-01-29T02:02:47.291Z,1000.64
2019-01-29T02:03:47.301Z,1000.65
2019-01-29T02:04:47.305Z,1000.61
2019-01-29T02:05:47.340Z,1000.68
2019-01-29T02:06:47.337Z,1000.67
2019-01-29T02:07:47.336Z,1000.66
2019-01-29T02:08:47.352Z,1000.66
2019-01-29T02:09:47.361Z,1000.71
2019-01-29T02:10:47.369Z,1000.71
2019-01-29T02:11:47.382Z,1000.73
2019-01-29T02:12:47.390Z,1000.73
2019-01-29T02:13:47.418Z,1000.68
2019-01-29T02:14:47.408Z,1000.66
2019-01-29T02:15:47.419Z,1000.67
2019-01-29T02:16:47.431Z,1000.75
2019-01-29T02:17:47.441Z,1000.76
2019-01-29T02:18:47.454Z,1000.71
2019-01-29T02:19:47.502Z,1000.69
2019-01-29T02:20:47.470Z,1000.71
2019-01-29T02:21:47.482Z,1000.68
2019-01-29T02:22:47.492Z,1000.70
2019-01-29T02:23:47.506Z,1000.68
2019-01-29T02:24:47.520Z,1000.65
2019-01-29T02:25:47.528Z,1000.66
2019-01-29T02:26:47.537Z,1000.69
2019-01-29T02:27:47.543Z,1000.66
2019-01-29T02:28:47.555Z,1000.64
2019-01-29T02:29:47.566Z,1000.66
2019-01-29T02:30:47.578Z,1000.65
2019-01-29T02:31:47.589Z,1000.68
2019-01-29T02:32:47.604Z,1000.69
2019-01-29T02:33:54.147Z,1000.73
2019-01-29T02:34:47.623Z,1000.74
2019-01-29T02:35:47.626Z,1000.83
2019-01-29T02:36:47.651Z,1000.81
2019-01-29T02:37:47.649Z,1000.82
2019-01-29T02:38:47.662Z,1000.82
2019-01-29T02:39:47.680Z,1000.80
2019-01-29T02:40:47.687Z,1000.77
2019-01-29T02:41:47.697Z,1000.80
2019-01-29T02:42:47.763Z,1000.75
2019-01-29T02:43:47.711Z,1000.77
2019-01-29T02:44:47.719Z,1000.74
2019-01-29T02:45:47.732Z,1000.76
2019-01-29T02:46:47.743Z,1000.72
2019-01-29T02:47:47.753Z,1000.78
2019-01-29T02:48:47.767Z,1000.73
2019-01-29T02:49:47.773Z,1000.76
2019-01-29T02:50:47.783Z,1000.78
2019-01-29T02:51:47.807Z,1000.78
2019-01-29T02:52:47.808Z,1000.78
2019-01-29T02:53:47.821Z,1000.81
2019-01-29T02:54:47.839Z,1000.82
2019-01-29T02:55:47.832Z,1000.77
2019-01-29T02:56:47.850Z,1000.78
2019-01-29T02:57:47.858Z,1000.77
2019-01-29T02:58:47.872Z,1000.77
2019-01-29T02:59:47.876Z,1000.76
2019-01-29T03:00:47.886Z,1000.76
2019-01-29T03:01:47.899Z,1000.77
2019-01-29T03:02:47.908Z,1000.78
2019-01-29T03:03:47.920Z,1000.76
2019-01-29T03:04:47.933Z,1000.80
2019-01-29T03:05:47.940Z,1000.74
2019-01-29T03:06:47.952Z,1000.81
2019-01-29T03:07:47.961Z,1000.76
2019-01-29T03:08:47.968Z,1000.77
2019-01-29T03:38:05.869Z,1000.67
2019-01-29T03:39:05.846Z,1000.65
2019-01-29T03:40:57.751Z,1000.69
2019-01-29T03:41:57.738Z,1000.69
2019-01-29T03:43:49.631Z,1000.77
2019-01-29T03:44:49.636Z,1000.73
2019-01-29T03:46:41.542Z,1000.69
2019-01-29T03:47:41.524Z,1000.65
2019-01-29T03:49:33.493Z,1000.67
2019-01-29T03:50:33.498Z,1000.66
2019-01-29T03:52:25.414Z,1000.69
2019-01-29T03:53:25.391Z,1000.68
2019-01-29T03:55:18.815Z,1000.69
2019-01-29T03:56:18.803Z,1000.74
2019-01-29T03:58:11.200Z,1000.72
2019-01-29T03:59:11.200Z,1000.75
2019-01-29T04:01:06.125Z,1000.75
2019-01-29T04:02:06.108Z,1000.72
2019-01-29T04:03:58.018Z,1000.77
2019-01-29T04:04:58.021Z,1000.75
2019-01-29T04:06:49.940Z,1000.74
2019-01-29T04:07:49.927Z,1000.82
2019-01-29T04:09:42.313Z,1000.75
2019-01-29T04:10:42.332Z,1000.80
2019-01-29T04:12:34.252Z,1000.81
2019-01-29T04:13:34.221Z,1000.83
2019-01-29T04:15:26.152Z,1000.80
2019-01-29T04:16:26.132Z,1000.76
2019-01-29T04:18:18.030Z,1000.82
2019-01-29T04:19:18.035Z,1000.84
2019-01-29T04:21:09.955Z,1000.87
2019-01-29T04:22:09.935Z,1000.85
2019-01-29T04:24:01.852Z,1000.88
2019-01-29T04:25:01.861Z,1000.85
2019-01-29T04:26:53.763Z,1000.84
2019-01-29T04:27:53.746Z,1000.85
2019-01-29T04:29:45.653Z,1000.82
2019-01-29T04:30:45.657Z,1000.81
2019-01-29T04:32:37.579Z,1000.83
2019-01-29T04:33:37.558Z,1000.85
2019-01-29T04:35:29.481Z,1000.86
2019-01-29T04:36:29.466Z,1000.79
2019-01-29T04:38:21.376Z,1000.77
2019-01-29T04:39:21.370Z,1000.79
2019-01-29T04:41:13.299Z,1000.77
2019-01-29T04:42:13.285Z,1000.74
2019-01-29T04:44:05.193Z,1000.75
2019-01-29T04:45:05.197Z,1000.68
2019-01-29T04:46:57.126Z,1000.68
2019-01-29T04:47:57.098Z,1000.73
2019-01-29T04:49:49.007Z,1000.73
2019-01-29T04:50:49.009Z,1000.72
2019-01-29T04:52:40.943Z,1000.75
2019-01-29T04:53:40.924Z,1000.76
2019-01-29T04:55:32.846Z,1000.73
2019-01-29T04:56:32.828Z,1000.68
2019-01-29T04:58:24.748Z,1000.72
2019-01-29T04:59:24.740Z,1000.74
2019-01-29T05:01:18.459Z,1000.79
2019-01-29T05:02:16.652Z,1000.74
2019-01-29T05:04:08.565Z,1000.84
2019-01-29T05:05:08.568Z,1000.82
2019-01-29T05:07:00.513Z,1000.82
2019-01-29T05:08:00.475Z,1000.83
2019-01-29T05:09:52.869Z,1000.76
2019-01-29T05:10:52.878Z,1000.75
2019-01-29T05:12:44.827Z,1000.79
2019-01-29T05:13:44.793Z,1000.79
2019-01-29T05:15:36.721Z,1000.76
2019-01-29T05:16:36.706Z,1000.74
2019-01-29T05:18:28.620Z,1000.70
2019-01-29T05:19:28.619Z,1000.68
2019-01-29T05:21:20.576Z,1000.63
2019-01-29T05:22:20.523Z,1000.64
2019-01-29T05:24:12.927Z,1000.67
2019-01-29T05:25:12.934Z,1000.68
2019-01-29T05:27:04.859Z,1000.61
2019-01-29T05:28:04.847Z,1000.57
2019-01-29T05:29:56.752Z,1000.56
2019-01-29T05:30:56.755Z,1000.56
2019-01-29T05:32:48.674Z,1000.50
2019-01-29T05:33:48.663Z,1000.50
2019-01-29T05:35:40.609Z,1000.55
2019-01-29T05:36:40.585Z,1000.47
2019-01-29T05:38:32.492Z,1000.50
2019-01-29T05:39:32.503Z,1000.43
2019-01-29T05:41:24.418Z,1000.47
2019-01-29T05:42:24.400Z,1000.48
2019-01-29T05:44:16.313Z,1000.50
2019-01-29T05:45:16.313Z,1000.48
2019-01-29T05:47:08.236Z,1000.50
2019-01-29T05:48:08.222Z,1000.51
2019-01-29T05:50:00.284Z,1000.53
2019-01-29T05:51:00.144Z,1000.52
2019-01-29T05:52:52.046Z,1000.50
2019-01-29T05:53:52.037Z,1000.49
2019-01-29T05:55:43.947Z,1000.52
2019-01-29T05:56:43.955Z,1000.46
2019-01-29T05:58:35.877Z,1000.50
2019-01-29T05:59:35.849Z,1000.53
2019-01-29T06:01:27.788Z,1000.48
2019-01-29T06:02:27.765Z,1000.53
2019-01-29T06:04:19.658Z,1000.51
2019-01-29T06:05:19.684Z,1000.54
2019-01-29T06:07:11.587Z,1000.57
2019-01-29T06:08:11.573Z,1000.52
2019-01-29T06:10:03.475Z,1000.52
2019-01-29T06:11:03.478Z,1000.49
2019-01-29T06:12:55.404Z,1000.54
2019-01-29T06:13:55.388Z,1000.57
2019-01-29T06:15:47.295Z,1000.58
2019-01-29T06:16:47.298Z,1000.55
2019-01-29T06:18:39.213Z,1000.61
2019-01-29T06:19:39.201Z,1000.60
2019-01-29T06:21:31.127Z,1000.57
2019-01-29T06:22:31.111Z,1000.59
2019-01-29T06:24:25.777Z,1000.59
2019-01-29T06:25:23.021Z,1000.60
2019-01-29T06:27:14.940Z,1000.62
2019-01-29T06:28:14.924Z,1000.58
2019-01-29T06:30:06.830Z,1000.63
2019-01-29T06:31:06.825Z,1000.57
2019-01-29T06:32:58.749Z,1000.61
2019-01-29T06:33:58.732Z,1000.67
2019-01-29T06:35:50.641Z,1000.72
2019-01-29T06:36:51.013Z,1000.66
2019-01-29T06:38:42.561Z,1000.65
2019-01-29T06:39:42.551Z,1000.63
2019-01-29T06:41:34.470Z,1000.70
2019-01-29T06:42:34.457Z,1000.70
2019-01-29T06:44:26.368Z,1000.76
2019-01-29T06:45:26.414Z,1000.79
2019-01-29T06:47:18.292Z,1000.79
2019-01-29T06:48:18.273Z,1000.81
2019-01-29T06:50:10.178Z,1000.80
2019-01-29T06:51:10.185Z,1000.80
2019-01-29T06:53:02.093Z,1000.81
2019-01-29T06:54:02.081Z,1000.81
2019-01-29T06:55:53.984Z,1000.85
2019-01-29T06:56:53.981Z,1000.78
2019-01-29T06:58:45.912Z,1000.74
2019-01-29T06:59:45.898Z,1000.80
2019-01-29T07:01:37.825Z,1000.77
2019-01-29T07:02:37.809Z,1000.76
2019-01-29T07:04:29.710Z,1000.83
2019-01-29T07:05:29.714Z,1000.79
2019-01-29T07:07:21.636Z,1000.81
2019-01-29T07:08:21.613Z,1000.79
2019-01-29T07:10:13.527Z,1000.71
2019-01-29T07:11:13.522Z,1000.72
2019-01-29T07:13:05.952Z,1000.69
2019-01-29T07:14:05.934Z,1000.73
2019-01-29T07:15:57.833Z,1000.70
2019-01-29T07:16:57.839Z,1000.72
2019-01-29T07:18:49.766Z,1000.71
2019-01-29T07:19:49.744Z,1000.70
2019-01-29T07:21:42.579Z,1000.74
2019-01-29T07:22:41.648Z,1000.74
2019-01-29T07:24:42.437Z,1000.79
2019-01-29T07:25:34.052Z,1000.74
2019-01-29T07:27:25.971Z,1000.78
2019-01-29T07:28:25.956Z,1000.76
2019-01-29T07:30:17.866Z,1000.74
2019-01-29T07:31:17.879Z,1000.71
2019-01-29T07:33:09.796Z,1000.77
2019-01-29T07:34:09.772Z,1000.72
2019-01-29T07:36:01.689Z,1000.71
2019-01-29T07:37:01.723Z,1000.72
2019-01-29T07:38:53.599Z,1000.69
2019-01-29T07:39:53.580Z,1000.67
2019-01-29T07:41:45.486Z,1000.64
2019-01-29T07:42:45.486Z,1000.63
2019-01-29T07:44:37.404Z,1000.60
2019-01-29T07:45:37.397Z,1000.58
2019-01-29T07:47:29.312Z,1000.60
2019-01-29T07:48:29.301Z,1000.58
2019-01-29T07:50:21.206Z,1000.55
2019-01-29T07:51:21.209Z,1000.58
2019-01-29T07:53:13.168Z,1000.59
2019-01-29T07:54:13.125Z,1000.59
2019-01-29T07:56:05.019Z,1000.60
2019-01-29T07:57:05.030Z,1000.62
2019-01-29T07:58:56.955Z,1000.61
2019-01-29T07:59:56.947Z,1000.61
2019-01-29T08:01:48.852Z,1000.54
2019-01-29T08:02:48.855Z,1000.57
2019-01-29T08:04:41.269Z,1000.61
2019-01-29T08:05:41.256Z,1000.60
2019-01-29T08:07:33.290Z,1000.60
2019-01-29T08:08:33.224Z,1000.64
2019-01-29T08:10:25.130Z,1000.62
2019-01-29T08:11:25.138Z,1000.59
2019-01-29T08:13:17.055Z,1000.58
2019-01-29T08:14:17.040Z,1000.56
2019-01-29T08:16:09.470Z,1000.59
2019-01-29T08:17:09.537Z,1000.54
2019-01-29T08:19:01.368Z,1000.59
2019-01-29T08:20:01.364Z,1000.54
2019-01-29T08:21:53.269Z,1000.55
2019-01-29T08:22:53.360Z,1000.60
2019-01-29T08:24:51.754Z,1000.56
2019-01-29T08:25:47.822Z,1000.58
2019-01-29T08:27:37.095Z,1000.58
2019-01-29T08:28:37.076Z,1000.58
2019-01-29T08:30:28.983Z,1000.56
2019-01-29T08:31:29.111Z,1000.58
2019-01-29T08:33:20.905Z,1000.58
2019-01-29T08:34:20.898Z,1000.58
2019-01-29T08:36:12.801Z,1000.62
2019-01-29T08:37:12.797Z,1000.58
2019-01-29T08:39:04.754Z,1000.60
2019-01-29T08:40:04.708Z,1000.61
2019-01-29T08:41:56.603Z,1000.56
2019-01-29T08:42:56.608Z,1000.54
2019-01-29T08:44:48.542Z,1000.53
2019-01-29T08:45:48.526Z,1000.56
2019-01-29T08:47:40.442Z,1000.54
2019-01-29T08:48:40.430Z,1000.52
2019-01-29T08:50:32.344Z,1000.51
2019-01-29T08:51:32.342Z,1000.53
2019-01-29T08:53:24.333Z,1000.45
2019-01-29T08:54:24.331Z,1000.41
2019-01-29T08:56:16.248Z,1000.37
2019-01-29T08:57:16.258Z,1000.34
2019-01-29T08:59:08.171Z,1000.37
2019-01-29T09:00:08.159Z,1000.36
2019-01-29T09:02:00.065Z,1000.41
2019-01-29T09:03:00.084Z,1000.35
2019-01-29T09:04:52.001Z,1000.36
2019-01-29T09:05:51.979Z,1000.32
2019-01-29T09:07:43.900Z,1000.39
2019-01-29T09:08:43.889Z,1000.43
2019-01-29T09:10:35.788Z,1000.39
2019-01-29T09:11:35.794Z,1000.30
2019-01-29T09:13:27.713Z,1000.33
2019-01-29T09:14:27.716Z,1000.35
2019-01-29T09:16:19.610Z,1000.33
2019-01-29T09:17:19.629Z,1000.31
2019-01-29T09:19:11.534Z,1000.27
2019-01-29T09:20:11.516Z,1000.24
2019-01-29T09:22:03.413Z,1000.19
2019-01-29T09:23:03.429Z,1000.19
2019-01-29T09:24:55.354Z,1000.15
2019-01-29T09:25:55.336Z,1000.13
2019-01-29T09:27:47.306Z,1000.17
2019-01-29T09:28:47.253Z,1000.17
2019-01-29T09:30:39.182Z,1000.13
2019-01-29T09:31:39.152Z,1000.11
2019-01-29T09:33:31.105Z,1000.12
2019-01-29T09:34:31.087Z,1000.13
2019-01-29T09:36:22.988Z,1000.08
2019-01-29T09:37:23.001Z,1000.10
2019-01-29T09:39:14.919Z,1000.07
2019-01-29T09:40:14.904Z,1000.08
2019-01-29T09:42:06.814Z,999.99
2019-01-29T09:43:06.808Z,1000.03
2019-01-29T09:44:58.735Z,1000.00
2019-01-29T09:45:58.718Z,999.98
2019-01-29T09:47:50.625Z,999.96
2019-01-29T09:48:50.629Z,999.98
2019-01-29T09:50:42.560Z,999.90
2019-01-29T09:51:42.538Z,999.90
2019-01-29T09:53:34.463Z,999.87
2019-01-29T09:54:34.449Z,999.87
2019-01-29T09:56:26.366Z,999.86
2019-01-29T09:57:26.366Z,999.83
2019-01-29T09:59:18.325Z,999.82
2019-01-29T10:00:18.289Z,999.83
2019-01-29T10:02:11.643Z,999.87
2019-01-29T10:03:10.495Z,999.86
2019-01-29T10:05:02.202Z,999.82
2019-01-29T10:06:02.360Z,999.82
2019-01-29T10:07:54.091Z,999.88
2019-01-29T10:08:54.093Z,999.90
2019-01-29T10:09:54.105Z,999.87
2019-01-29T10:10:54.118Z,999.88
2019-01-29T10:11:54.124Z,999.85
2019-01-29T10:12:54.135Z,999.84
2019-01-29T10:13:54.150Z,999.86
2019-01-29T10:14:55.045Z,999.83
2019-01-29T10:15:54.176Z,999.81
2019-01-29T10:16:54.192Z,999.82
2019-01-29T10:17:54.203Z,999.79
2019-01-29T10:18:54.219Z,999.78
2019-01-29T10:20:02.305Z,999.75
2019-01-29T10:20:54.241Z,999.74
2019-01-29T10:21:54.271Z,999.76
2019-01-29T10:22:54.269Z,999.77
2019-01-29T10:23:54.275Z,999.80
2019-01-29T10:24:54.289Z,999.78
2019-01-29T10:25:54.312Z,999.80
2019-01-29T10:26:54.320Z,999.74
2019-01-29T10:27:54.325Z,999.72
2019-01-29T10:28:54.333Z,999.75
2019-01-29T10:29:54.349Z,999.79
2019-01-29T10:30:54.393Z,999.73
2019-01-29T10:31:54.372Z,999.75
2019-01-29T10:32:54.390Z,999.66
2019-01-29T10:33:54.392Z,999.72
2019-01-29T10:34:54.412Z,999.67
2019-01-29T10:35:54.420Z,999.64
2019-01-29T10:36:54.442Z,999.67
2019-01-29T10:37:54.444Z,999.69
2019-01-29T10:38:54.469Z,999.65
2019-01-29T10:39:54.484Z,999.59
2019-01-29T10:40:54.490Z,999.58
2019-01-29T10:41:54.502Z,999.64
2019-01-29T10:42:54.516Z,999.58
2019-01-29T10:43:54.525Z,999.55
2019-01-29T10:44:54.556Z,999.54
2019-01-29T10:45:54.547Z,999.55
2019-01-29T10:46:54.560Z,999.51
2019-01-29T10:47:54.634Z,999.48
2019-01-29T10:48:54.601Z,999.46
2019-01-29T10:49:54.592Z,999.45
2019-01-29T10:50:54.631Z,999.45
2019-01-29T10:51:54.622Z,999.41
2019-01-29T10:52:54.635Z,999.35
2019-01-29T10:53:54.651Z,999.41
2019-01-29T10:54:54.654Z,999.38
2019-01-29T10:55:54.669Z,999.34
2019-01-29T10:56:54.682Z,999.27
2019-01-29T10:57:54.694Z,999.23
2019-01-29T10:58:54.711Z,999.24
2019-01-29T10:59:54.720Z,999.23
2019-01-29T11:00:54.733Z,999.24
2019-01-29T11:01:54.737Z,999.19
2019-01-29T11:02:54.768Z,999.12
2019-01-29T11:03:54.769Z,999.12
2019-01-29T11:04:54.787Z,999.06
2019-01-29T11:05:54.795Z,999.07
2019-01-29T11:06:54.811Z,999.05
2019-01-29T11:07:54.812Z,999.02
2019-01-29T11:08:54.829Z,999.04
2019-01-29T11:09:54.845Z,998.99
2019-01-29T11:10:54.857Z,999.03
2019-01-29T11:11:54.864Z,998.97
2019-01-29T11:12:54.880Z,998.96
2019-01-29T11:13:54.893Z,998.91
2019-01-29T11:14:54.916Z,998.90
2019-01-29T11:15:54.914Z,998.88
2019-01-29T11:16:54.932Z,998.89
2019-01-29T11:17:54.947Z,998.82
2019-01-29T11:19:02.924Z,998.80
2019-01-29T11:19:54.966Z,998.83
2019-01-29T11:20:54.973Z,998.85
2019-01-29T11:21:55.965Z,998.80
2019-01-29T11:22:55.005Z,998.82
2019-01-29T11:23:55.027Z,998.71
2019-01-29T11:24:55.035Z,998.70
2019-01-29T11:25:55.972Z,998.76
2019-01-29T11:26:55.052Z,998.70
2019-01-29T11:27:55.072Z,998.69
2019-01-29T11:28:55.079Z,998.66
2019-01-29T11:29:55.092Z,998.71
2019-01-29T11:30:55.106Z,998.68
2019-01-29T11:31:55.133Z,998.65
2019-01-29T11:32:55.140Z,998.67
2019-01-29T11:33:55.157Z,998.69
2019-01-29T11:34:55.160Z,998.64
2019-01-29T11:35:55.176Z,998.61
2019-01-29T11:37:55.207Z,998.56
2019-01-29T11:38:55.227Z,998.55
2019-01-29T11:39:55.222Z,998.53
2019-01-29T11:40:55.244Z,998.48
2019-01-29T11:41:55.250Z,998.46
2019-01-29T11:42:55.272Z,998.47
2019-01-29T11:44:16.288Z,998.47
2019-01-29T11:44:55.286Z,998.43
2019-01-29T11:45:55.305Z,998.42
2019-01-29T11:46:55.321Z,998.39
2019-01-29T11:47:55.324Z,998.34
2019-01-29T11:48:55.351Z,998.30
2019-01-29T11:50:16.371Z,998.30
2019-01-29T11:50:55.370Z,998.31
2019-01-29T11:51:55.382Z,998.31
2019-01-29T11:52:55.409Z,998.32
2019-01-29T11:53:55.412Z,998.29
2019-01-29T11:54:55.413Z,998.33
2019-01-29T11:56:16.442Z,998.29
2019-01-29T11:56:55.452Z,998.32
2019-01-29T11:57:55.453Z,998.33
2019-01-29T11:58:55.465Z,998.28
2019-01-29T11:59:55.486Z,998.31
2019-01-29T12:00:55.495Z,998.29
2019-01-29T12:02:16.524Z,998.22
2019-01-29T12:02:55.521Z,998.20
2019-01-29T12:03:55.538Z,998.20
2019-01-29T12:04:55.539Z,998.22
2019-01-29T12:05:55.569Z,998.14
2019-01-29T12:06:55.907Z,998.16
2019-01-29T12:08:16.668Z,998.15
2019-01-29T12:08:55.625Z,998.13
2019-01-29T12:09:56.558Z,998.12
2019-01-29T12:10:55.643Z,998.10
2019-01-29T12:11:55.636Z,998.07
2019-01-29T12:12:55.641Z,998.08
2019-01-29T12:14:16.672Z,998.05
2019-01-29T12:14:55.672Z,998.02
2019-01-29T12:15:55.687Z,998.04
2019-01-29T12:16:55.705Z,997.97
2019-01-29T12:17:55.717Z,997.99
2019-01-29T12:18:55.729Z,997.97
2019-01-29T12:20:16.753Z,997.99
2019-01-29T12:20:55.751Z,997.93
2019-01-29T12:21:55.825Z,997.93
2019-01-29T12:22:55.776Z,997.91
2019-01-29T12:23:55.793Z,997.92
2019-01-29T12:24:55.801Z,997.92
2019-01-29T12:26:16.848Z,997.90
2019-01-29T12:26:55.835Z,997.88
2019-01-29T12:27:55.852Z,997.87
2019-01-29T12:28:55.857Z,997.87
2019-01-29T12:29:55.872Z,997.78
2019-01-29T12:30:55.904Z,997.74
2019-01-29T12:32:16.972Z,997.80
2019-01-29T12:32:55.924Z,997.86
2019-01-29T12:33:55.924Z,997.81
2019-01-29T12:34:55.949Z,997.83
2019-01-29T12:35:55.957Z,997.80
2019-01-29T12:36:55.964Z,997.77
2019-01-29T12:38:16.987Z,997.78
2019-01-29T12:38:55.987Z,997.77
2019-01-29T12:39:56.001Z,997.77
2019-01-29T12:40:56.014Z,997.76
2019-01-29T12:41:56.026Z,997.73
2019-01-29T12:42:56.053Z,997.68
2019-01-29T12:44:17.058Z,997.69
2019-01-29T12:44:56.068Z,997.67
2019-01-29T12:45:56.081Z,997.68
2019-01-29T12:46:56.091Z,997.65
2019-01-29T12:47:56.110Z,997.58
2019-01-29T12:48:56.123Z,997.58
2019-01-29T12:50:17.157Z,997.58
2019-01-29T12:50:56.148Z,997.56
2019-01-29T12:51:56.166Z,997.52
2019-01-29T12:52:56.172Z,997.55
2019-01-29T12:53:56.180Z,997.48
2019-01-29T12:54:56.198Z,997.45
2019-01-29T12:56:21.558Z,997.41
2019-01-29T12:56:56.226Z,997.42
2019-01-29T12:57:56.242Z,997.40
2019-01-29T12:58:56.250Z,997.40
2019-01-29T12:59:56.258Z,997.40
2019-01-29T13:00:56.288Z,997.41
2019-01-29T13:02:17.321Z,997.38
2019-01-29T13:02:56.308Z,997.33
2019-01-29T13:03:56.320Z,997.32
2019-01-29T13:04:56.321Z,997.30
2019-01-29T13:05:56.335Z,997.32
2019-01-29T13:06:56.365Z,997.26
2019-01-29T13:08:17.373Z,997.28
2019-01-29T13:08:56.377Z,997.28
2019-01-29T13:09:56.390Z,997.25
2019-01-29T13:10:56.398Z,997.20
2019-01-29T13:11:56.414Z,997.22
2019-01-29T13:12:56.427Z,997.25
2019-01-29T13:14:17.465Z,997.18
2019-01-29T13:14:56.464Z,997.16
2019-01-29T13:15:56.470Z,997.16
2019-01-29T13:16:56.483Z,997.14
2019-01-29T13:17:56.488Z,997.11
2019-01-29T13:18:56.509Z,997.13
2019-01-29T13:20:17.563Z,997.15
2019-01-29T13:20:56.533Z,997.15
2019-01-29T13:21:56.547Z,997.18
2019-01-29T13:22:56.558Z,997.12
2019-01-29T13:23:56.567Z,997.14
2019-01-29T13:24:56.607Z,997.13
2019-01-29T13:26:17.628Z,997.09
2019-01-29T13:26:56.605Z,997.02
2019-01-29T13:27:56.622Z,997.07
2019-01-29T13:28:56.630Z,997.07
2019-01-29T13:29:56.682Z,997.07
2019-01-29T13:30:56.677Z,997.02
2019-01-29T13:32:17.688Z,996.98
2019-01-29T13:32:56.685Z,996.93
2019-01-29T13:33:56.696Z,996.88
2019-01-29T13:34:56.720Z,996.86
2019-01-29T13:35:56.730Z,996.82
2019-01-29T13:36:56.744Z,996.79
2019-01-29T13:38:17.783Z,996.81
2019-01-29T13:38:56.760Z,996.80
2019-01-29T13:39:56.817Z,996.75
2019-01-29T13:40:56.794Z,996.72
2019-01-29T13:41:56.808Z,996.69
2019-01-29T13:42:56.829Z,996.66
2019-01-29T13:44:17.845Z,996.63
2019-01-29T13:44:56.837Z,996.61
2019-01-29T13:45:56.863Z,996.62
2019-01-29T13:46:56.867Z,996.55
2019-01-29T13:47:56.876Z,996.56
2019-01-29T13:48:56.888Z,996.60
2019-01-29T13:50:17.934Z,996.60
2019-01-29T13:50:56.919Z,996.61
2019-01-29T13:51:56.934Z,996.60
2019-01-29T13:52:56.941Z,996.52
2019-01-29T13:53:56.962Z,996.51
2019-01-29T13:54:56.971Z,996.41
2019-01-29T13:56:17.988Z,996.47
2019-01-29T13:56:56.995Z,996.43
2019-01-29T13:57:57.021Z,996.46
2019-01-29T13:58:57.018Z,996.45
2019-01-29T13:59:57.030Z,996.52
2019-01-29T14:00:57.042Z,996.45
2019-01-29T14:02:18.078Z,996.47
2019-01-29T14:02:57.092Z,996.44
2019-01-29T14:04:05.794Z,996.42
2019-01-29T14:04:57.092Z,996.45
2019-01-29T14:05:57.117Z,996.42
2019-01-29T14:06:57.158Z,996.39
2019-01-29T14:08:18.220Z,996.42
2019-01-29T14:08:57.154Z,996.44
2019-01-29T14:09:57.159Z,996.41
2019-01-29T14:10:58.146Z,996.37
2019-01-29T14:11:57.184Z,996.40
2019-01-29T14:12:57.201Z,996.33
2019-01-29T14:14:18.225Z,996.36
2019-01-29T14:14:57.224Z,996.38
2019-01-29T14:15:57.234Z,996.37
2019-01-29T14:16:57.246Z,996.34
2019-01-29T14:17:57.263Z,996.29
2019-01-29T14:18:57.286Z,996.34
2019-01-29T14:20:18.317Z,996.31
2019-01-29T14:20:57.309Z,996.31
2019-01-29T14:21:57.423Z,996.30
2019-01-29T14:22:57.333Z,996.31
2019-01-29T14:23:57.332Z,996.33
2019-01-29T14:24:57.370Z,996.34
2019-01-29T14:26:18.375Z,996.29
2019-01-29T14:26:57.383Z,996.25
2019-01-29T14:27:57.385Z,996.26
2019-01-29T14:28:57.412Z,996.27
2019-01-29T14:29:57.433Z,996.24
2019-01-29T14:30:57.439Z,996.24
2019-01-29T14:32:18.471Z,996.27
2019-01-29T14:32:57.454Z,996.25
2019-01-29T14:33:57.464Z,996.25
2019-01-29T14:34:57.475Z,996.16
2019-01-29T14:35:57.488Z,996.16
2019-01-29T14:36:57.517Z,996.15
2019-01-29T14:38:18.552Z,996.16
2019-01-29T14:38:57.536Z,996.11
2019-01-29T14:39:58.153Z,996.06
2019-01-29T14:40:57.561Z,996.07
2019-01-29T14:41:57.566Z,996.00